createdAt,value
2019-06-20T00:03:04.315Z,33
2019-06-20T00:08:04.314Z,33
2019-06-20T00:13:07.043Z,32
2019-06-20T00:18:04.348Z,48
2019-06-20T00:23:04.360Z,38
2019-06-20T00:28:04.434Z,39
2019-06-20T00:33:04.424Z,33
2019-06-20T00:38:04.326Z,30
2019-06-20T00:43:20.661Z,32
2019-06-20T00:48:04.284Z,32
2019-06-20T00:53:04.256Z,35
2019-06-20T00:58:04.281Z,40
2019-06-20T01:03:04.374Z,43
2019-06-20T01:08:04.309Z,41
2019-06-20T01:13:04.262Z,33
2019-06-20T01:18:04.268Z,33
2019-06-20T01:23:04.589Z,32
2019-06-20T01:28:04.253Z,35
2019-06-20T01:33:04.278Z,29
2019-06-20T01:38:04.272Z,29
2019-06-20T01:43:04.928Z,29
2019-06-20T01:48:04.228Z,28
2019-06-20T01:53:04.261Z,33
2019-06-20T01:58:04.207Z,32
2019-06-20T02:03:14.350Z,31
2019-06-20T02:08:04.223Z,29
2019-06-20T02:13:04.355Z,35
2019-06-20T02:18:04.232Z,26
2019-06-20T02:23:04.167Z,27
2019-06-20T02:28:04.218Z,28
2019-06-20T02:33:04.236Z,23
2019-06-20T02:38:04.247Z,25
2019-06-20T02:43:04.245Z,37
2019-06-20T02:48:04.168Z,38
2019-06-20T02:53:05.481Z,28
2019-06-20T02:58:04.168Z,30
2019-06-20T03:03:04.151Z,34
2019-06-20T03:08:05.203Z,28
2019-06-20T03:13:04.216Z,27
2019-06-20T03:18:04.157Z,31
2019-06-20T03:23:04.190Z,26
2019-06-20T03:28:04.198Z,32
2019-06-20T03:33:04.182Z,33
2019-06-20T03:38:04.173Z,27
2019-06-20T03:43:04.193Z,28
2019-06-20T03:48:04.118Z,21
2019-06-20T03:53:04.114Z,27
2019-06-20T03:58:04.135Z,21
2019-06-20T04:03:04.867Z,26
2019-06-20T04:08:04.867Z,30
2019-06-20T04:13:04.893Z,27
2019-06-20T04:18:04.853Z,20
2019-06-20T04:23:04.924Z,21
2019-06-20T04:28:04.869Z,20
2019-06-20T04:33:05.014Z,21
2019-06-20T04:38:04.918Z,21
2019-06-20T04:43:04.852Z,25
2019-06-20T04:48:04.963Z,20
2019-06-20T04:58:04.833Z,28
2019-06-20T05:03:04.907Z,23
2019-06-20T05:08:04.814Z,22
2019-06-20T05:13:04.829Z,21
2019-06-20T05:14:24.767Z,19
2019-06-20T05:19:24.835Z,24
2019-06-20T05:24:27.717Z,23
2019-06-20T05:29:24.962Z,24
2019-06-20T05:34:24.947Z,21
2019-06-20T05:39:24.787Z,22
2019-06-20T05:44:24.835Z,19
2019-06-20T05:49:25.289Z,23
2019-06-20T05:54:24.748Z,21
2019-06-20T05:59:24.752Z,26
2019-06-20T06:04:24.773Z,21
2019-06-20T06:09:24.792Z,22
2019-06-20T06:14:24.797Z,21
2019-06-20T06:19:24.827Z,20
2019-06-20T06:24:24.796Z,20
2019-06-20T06:29:24.767Z,22
2019-06-20T06:34:28.208Z,22
2019-06-20T06:39:24.753Z,19
2019-06-20T06:44:24.757Z,22
2019-06-20T06:49:24.749Z,24
2019-06-20T06:54:24.737Z,23
2019-06-20T06:59:24.715Z,23
2019-06-20T07:04:24.724Z,20
2019-06-20T07:09:24.711Z,20
2019-06-20T07:14:24.723Z,22
2019-06-20T07:19:24.675Z,22
2019-06-20T07:24:24.707Z,23
2019-06-20T07:29:24.711Z,20
2019-06-20T07:34:24.697Z,21
2019-06-20T07:39:24.685Z,22
2019-06-20T07:44:24.701Z,24
2019-06-20T07:49:24.723Z,19
2019-06-20T07:54:24.698Z,19
2019-06-20T07:59:24.685Z,22
2019-06-20T08:04:24.723Z,23
2019-06-20T08:09:45.890Z,20
2019-06-20T08:14:24.722Z,21
2019-06-20T08:19:24.748Z,23
2019-06-20T08:24:24.623Z,18
2019-06-20T08:29:27.581Z,17
2019-06-20T08:34:26.620Z,19
2019-06-20T08:39:24.654Z,20
2019-06-20T08:44:24.606Z,17
2019-06-20T08:49:24.604Z,17
2019-06-20T08:54:24.638Z,17
2019-06-20T08:59:30.769Z,18
2019-06-20T09:04:26.744Z,13
2019-06-20T09:09:24.636Z,15
2019-06-20T09:14:24.777Z,17
2019-06-20T09:19:24.651Z,17
2019-06-20T09:24:24.659Z,16
2019-06-20T09:29:24.556Z,18
2019-06-20T09:34:24.584Z,19
2019-06-20T09:39:24.553Z,19
2019-06-20T09:44:24.577Z,16
2019-06-20T09:49:24.585Z,15
2019-06-20T09:54:24.572Z,19
2019-06-20T09:59:33.865Z,17
2019-06-20T10:04:27.799Z,17
2019-06-20T10:09:24.589Z,17
2019-06-20T10:14:24.552Z,17
2019-06-20T10:19:24.536Z,19
2019-06-20T10:24:24.555Z,18
2019-06-20T10:29:24.538Z,17
2019-06-20T10:34:24.546Z,19
2019-06-20T10:39:24.528Z,18
2019-06-20T10:44:24.529Z,18
2019-06-20T10:49:24.619Z,20
2019-06-20T10:54:25.293Z,19
2019-06-20T10:59:25.293Z,16
2019-06-20T11:04:25.277Z,16
2019-06-20T11:09:25.269Z,17
2019-06-20T11:14:25.229Z,18
2019-06-20T11:19:25.239Z,19
2019-06-20T11:24:25.282Z,23
2019-06-20T11:29:25.207Z,23
2019-06-20T11:34:25.417Z,23
2019-06-20T11:39:25.264Z,20
2019-06-20T11:44:25.263Z,20
2019-06-20T11:49:25.235Z,25
2019-06-20T11:54:25.191Z,22
2019-06-20T11:59:25.330Z,18
2019-06-20T12:04:25.197Z,20
2019-06-20T12:09:25.190Z,18
2019-06-20T12:14:25.517Z,14
2019-06-20T12:19:25.329Z,19
2019-06-20T12:24:25.251Z,17
2019-06-20T12:29:25.273Z,16
2019-06-20T12:34:25.366Z,14
2019-06-20T12:39:25.207Z,14
2019-06-20T12:44:25.185Z,17
2019-06-20T12:49:28.088Z,17
2019-06-20T12:54:25.196Z,15
2019-06-20T12:59:29.425Z,16
2019-06-20T13:04:25.183Z,17
2019-06-20T13:09:25.124Z,15
2019-06-20T13:14:25.216Z,20
2019-06-20T13:19:25.223Z,14
2019-06-20T13:24:25.182Z,16
2019-06-20T13:29:25.148Z,15
2019-06-20T13:34:25.160Z,27
2019-06-20T13:39:25.142Z,16
2019-06-20T13:44:26.055Z,15
2019-06-20T13:49:25.127Z,15
2019-06-20T13:54:25.111Z,15
2019-06-20T13:59:25.139Z,30
2019-06-20T14:04:25.222Z,17
2019-06-20T14:09:25.159Z,14
2019-06-20T14:14:25.126Z,16
2019-06-20T14:19:25.343Z,15
2019-06-20T14:24:25.193Z,41
2019-06-20T14:29:25.145Z,15
2019-06-20T14:36:12.108Z,21
2019-06-20T14:41:12.160Z,17
2019-06-20T14:46:12.083Z,19
2019-06-20T14:51:12.064Z,20
2019-06-20T14:56:12.051Z,17
2019-06-20T15:01:12.165Z,16
2019-06-20T15:06:12.695Z,14
2019-06-20T15:11:14.476Z,22
2019-06-20T15:16:12.065Z,23
2019-06-20T15:21:13.369Z,18
2019-06-20T15:26:12.049Z,16
2019-06-20T15:31:12.055Z,17
2019-06-20T15:36:12.048Z,16
2019-06-20T15:41:14.596Z,17
2019-06-20T15:46:12.128Z,17
2019-06-20T15:51:12.030Z,17
2019-06-20T15:56:12.414Z,16
2019-06-20T16:01:12.074Z,18
2019-06-20T16:06:12.030Z,15
2019-06-20T16:11:12.061Z,16
2019-06-20T16:16:12.116Z,16
2019-06-20T16:21:11.992Z,41
2019-06-20T16:26:11.958Z,16
2019-06-20T16:31:30.525Z,19
2019-06-20T16:36:15.112Z,15
2019-06-20T16:41:11.967Z,19
2019-06-20T16:46:11.930Z,17
2019-06-20T16:51:13.302Z,19
2019-06-20T16:56:11.969Z,15
2019-06-20T17:01:11.993Z,17
2019-06-20T17:06:11.927Z,15
2019-06-20T17:11:11.990Z,19
2019-06-20T17:16:11.948Z,14
2019-06-20T17:21:11.926Z,15
2019-06-20T17:26:14.057Z,16
2019-06-20T17:31:11.976Z,17
2019-06-20T17:36:24.337Z,21
2019-06-20T17:41:11.900Z,18
2019-06-20T17:46:11.912Z,18
2019-06-20T17:51:11.928Z,20
2019-06-20T17:56:11.943Z,27
2019-06-20T18:01:11.955Z,19
2019-06-20T18:06:11.914Z,17
2019-06-20T18:11:11.918Z,19
2019-06-20T18:16:28.175Z,18
2019-06-20T18:21:11.890Z,21
2019-06-20T18:26:11.886Z,22
2019-06-20T18:31:11.984Z,21
2019-06-20T18:36:11.920Z,23
2019-06-20T18:41:12.043Z,18
2019-06-20T18:46:11.884Z,20
2019-06-20T18:51:11.867Z,20
2019-06-20T18:56:11.871Z,22
2019-06-20T19:01:12.042Z,20
2019-06-20T19:06:11.862Z,19
2019-06-20T19:11:11.851Z,19
2019-06-20T19:16:11.838Z,23
2019-06-20T19:21:11.842Z,32
2019-06-20T19:26:11.857Z,38
2019-06-20T19:31:11.849Z,29
2019-06-20T19:36:11.882Z,27
2019-06-20T19:41:11.840Z,27
2019-06-20T19:46:11.843Z,26
2019-06-20T19:51:11.840Z,29
2019-06-20T19:56:11.805Z,30
2019-06-20T20:01:11.806Z,33
2019-06-20T20:06:11.814Z,31
2019-06-20T20:11:11.808Z,28
2019-06-20T20:16:11.835Z,27
2019-06-20T20:21:11.825Z,34
2019-06-20T20:26:15.016Z,29
2019-06-20T20:31:11.762Z,29
2019-06-20T20:36:28.025Z,27
2019-06-20T20:41:12.998Z,38
2019-06-20T20:46:11.795Z,32
2019-06-20T20:51:11.758Z,30
2019-06-20T20:56:11.804Z,25
2019-06-20T21:01:11.954Z,31
2019-06-20T21:06:11.841Z,26
2019-06-20T21:11:11.758Z,24
2019-06-20T21:16:11.812Z,28
2019-06-20T21:21:11.767Z,27
2019-06-20T21:26:11.761Z,24
2019-06-20T21:31:11.796Z,22
2019-06-20T21:36:15.228Z,24
2019-06-20T21:41:11.739Z,21
2019-06-20T21:46:13.325Z,24
2019-06-20T21:51:11.945Z,38
2019-06-20T21:56:11.778Z,32
2019-06-20T22:01:11.752Z,29
2019-06-20T22:06:26.990Z,32
2019-06-20T22:11:11.695Z,29
2019-06-20T22:16:11.708Z,28
2019-06-20T22:21:11.743Z,25
2019-06-20T22:26:11.736Z,25
2019-06-20T22:31:11.704Z,25
2019-06-20T22:36:11.726Z,31
2019-06-20T22:41:11.664Z,27
2019-06-20T22:46:11.702Z,26
2019-06-20T22:51:13.616Z,25
2019-06-20T22:56:11.816Z,27
2019-06-20T23:01:11.641Z,25
2019-06-20T23:06:11.665Z,27
2019-06-20T23:11:11.674Z,28
2019-06-20T23:16:11.667Z,25
2019-06-20T23:21:11.679Z,25
2019-06-20T23:26:11.664Z,23
2019-06-20T23:31:11.653Z,24
2019-06-20T23:36:11.698Z,25
2019-06-20T23:41:11.621Z,25
2019-06-20T23:46:11.680Z,30
2019-06-20T23:51:26.924Z,27
2019-06-20T23:56:14.234Z,28
